Terminal Aerodrome Forecast
Issued by NWS

Home | Current Version | Previous Version | Text Only | Print | Product List | Glossary On
Versions: 1 2 3 4 5 6 7 8 9 10 11 12 13 14 15 16
793
FTUS45 KPSR 212320
TAFIPL
TAF
KIPL 212320Z 2200/2224 VRB05KT P6SM SCT250
     FM220400 27009KT P6SM OVC250
     FM221900 27015G24KT P6SM FEW180 SCT220=

USA.gov is the U.S. government's official web portal to all federal, state and local government web resources and services.